Terminal Aerodrome Forecast
Issued by NWS

Home | Current Version | Previous Version | Text Only | Print | Product List | Glossary On
Versions: 1 2 3 4 5 6 7 8 9 10 11 12 13 14 15 16 17 18 19 20 21 22 23
000
FTUS41 KPBZ 232300
TAFDUJ
TAF
KDUJ 232326Z 2400/2424 30008KT P6SM BKN025
      TEMPO 2400/2402 5SM BR BKN015
     FM240400 34010KT P6SM BKN010
     FM240600 34004KT 4SM BR SCT004
     FM240800 35003KT 4SM BR BKN005
     FM241500 01006KT P6SM BKN035=

USA.gov is the U.S. government's official web portal to all federal, state and local government web resources and services.